sensor_id;sensor_type;location;lat;lon;timestamp;P1;durP1;ratioP1;P2;durP2;ratioP2
23496;SDS011;11925;48.122;11.560;2022-07-01T00:01:11;6.75;;;3.38;;
23496;SDS011;11925;48.122;11.560;2022-07-01T00:03:39;6.15;;;3.88;;
23496;SDS011;11925;48.122;11.560;2022-07-01T00:06:15;6.60;;;3.75;;
23496;SDS011;11925;48.122;11.560;2022-07-01T00:08:44;5.68;;;4.82;;
23496;SDS011;11925;48.122;11.560;2022-07-01T00:11:14;5.82;;;3.78;;
23496;SDS011;11925;48.122;11.560;2022-07-01T00:13:43;5.65;;;4.63;;
23496;SDS011;11925;48.122;11.560;2022-07-01T00:16:13;7.05;;;4.70;;
23496;SDS011;11925;48.122;11.560;2022-07-01T00:18:42;5.80;;;4.85;;
23496;SDS011;11925;48.122;11.560;2022-07-01T00:21:11;7.68;;;5.15;;
23496;SDS011;11925;48.122;11.560;2022-07-01T00:23:40;8.52;;;5.30;;
23496;SDS011;11925;48.122;11.560;2022-07-01T00:26:09;7.85;;;4.80;;
23496;SDS011;11925;48.122;11.560;2022-07-01T00:28:38;9.88;;;4.57;;
23496;SDS011;11925;48.122;11.560;2022-07-01T00:31:07;8.70;;;5.13;;
23496;SDS011;11925;48.122;11.560;2022-07-01T00:33:37;8.43;;;5.25;;
23496;SDS011;11925;48.122;11.560;2022-07-01T00:36:06;6.65;;;4.75;;
23496;SDS011;11925;48.122;11.560;2022-07-01T00:38:35;6.50;;;4.70;;
23496;SDS011;11925;48.122;11.560;2022-07-01T00:41:04;8.25;;;4.47;;
23496;SDS011;11925;48.122;11.560;2022-07-01T00:43:34;8.40;;;4.35;;
23496;SDS011;11925;48.122;11.560;2022-07-01T00:46:20;4.97;;;4.25;;
23496;SDS011;11925;48.122;11.560;2022-07-01T00:48:52;6.50;;;4.00;;
23496;SDS011;11925;48.122;11.560;2022-07-01T00:53:51;3.70;;;3.25;;
23496;SDS011;11925;48.122;11.560;2022-07-01T00:56:20;5.90;;;3.40;;
23496;SDS011;11925;48.122;11.560;2022-07-01T00:58:50;6.80;;;3.05;;
23496;SDS011;11925;48.122;11.560;2022-07-01T01:01:19;5.47;;;3.17;;
23496;SDS011;11925;48.122;11.560;2022-07-01T01:03:49;4.80;;;2.83;;
23496;SDS011;11925;48.122;11.560;2022-07-01T01:06:19;4.93;;;2.60;;
23496;SDS011;11925;48.122;11.560;2022-07-01T01:08:48;3.38;;;2.10;;
23496;SDS011;11925;48.122;11.560;2022-07-01T01:11:17;4.13;;;2.40;;
23496;SDS011;11925;48.122;11.560;2022-07-01T01:13:46;4.22;;;1.63;;
23496;SDS011;11925;48.122;11.560;2022-07-01T01:16:15;2.38;;;1.85;;
23496;SDS011;11925;48.122;11.560;2022-07-01T01:18:45;2.42;;;1.42;;
23496;SDS011;11925;48.122;11.560;2022-07-01T01:21:15;2.22;;;1.35;;
23496;SDS011;11925;48.122;11.560;2022-07-01T01:23:45;3.25;;;1.30;;
23496;SDS011;11925;48.122;11.560;2022-07-01T01:26:17;1.50;;;1.20;;
23496;SDS011;11925;48.122;11.560;2022-07-01T01:28:46;2.83;;;1.50;;
23496;SDS011;11925;48.122;11.560;2022-07-01T01:31:15;4.00;;;1.40;;
23496;SDS011;11925;48.122;11.560;2022-07-01T01:33:44;2.42;;;1.15;;
23496;SDS011;11925;48.122;11.560;2022-07-01T01:36:13;3.28;;;1.25;;
23496;SDS011;11925;48.122;11.560;2022-07-01T01:38:43;2.22;;;1.73;;
23496;SDS011;11925;48.122;11.560;2022-07-01T01:41:12;3.13;;;1.10;;
23496;SDS011;11925;48.122;11.560;2022-07-01T01:43:41;2.47;;;1.00;;
23496;SDS011;11925;48.122;11.560;2022-07-01T01:46:09;1.42;;;0.80;;
23496;SDS011;11925;48.122;11.560;2022-07-01T01:48:38;1.58;;;0.85;;
23496;SDS011;11925;48.122;11.560;2022-07-01T01:51:07;1.60;;;0.70;;
23496;SDS011;11925;48.122;11.560;2022-07-01T01:53:36;3.47;;;0.80;;
23496;SDS011;11925;48.122;11.560;2022-07-01T01:56:06;1.58;;;0.80;;
23496;SDS011;11925;48.122;11.560;2022-07-01T01:58:35;1.88;;;1.00;;
23496;SDS011;11925;48.122;11.560;2022-07-01T02:01:03;1.08;;;0.80;;
23496;SDS011;11925;48.122;11.560;2022-07-01T02:03:32;1.00;;;0.70;;
23496;SDS011;11925;48.122;11.560;2022-07-01T02:06:01;1.90;;;0.80;;
23496;SDS011;11925;48.122;11.560;2022-07-01T02:08:30;1.38;;;0.65;;
23496;SDS011;11925;48.122;11.560;2022-07-01T02:10:59;0.82;;;0.60;;
23496;SDS011;11925;48.122;11.560;2022-07-01T02:13:29;1.45;;;0.80;;
23496;SDS011;11925;48.122;11.560;2022-07-01T02:15:58;1.33;;;0.73;;
23496;SDS011;11925;48.122;11.560;2022-07-01T02:18:27;1.27;;;0.70;;
23496;SDS011;11925;48.122;11.560;2022-07-01T02:20:56;1.95;;;0.75;;
23496;SDS011;11925;48.122;11.560;2022-07-01T02:23:25;1.27;;;0.68;;
23496;SDS011;11925;48.122;11.560;2022-07-01T02:25:55;2.55;;;0.77;;
23496;SDS011;11925;48.122;11.560;2022-07-01T02:28:24;0.95;;;0.60;;
23496;SDS011;11925;48.122;11.560;2022-07-01T02:30:54;1.20;;;0.80;;
23496;SDS011;11925;48.122;11.560;2022-07-01T02:33:23;2.60;;;0.70;;
23496;SDS011;11925;48.122;11.560;2022-07-01T02:35:52;1.30;;;0.80;;
23496;SDS011;11925;48.122;11.560;2022-07-01T02:38:20;1.05;;;0.70;;
23496;SDS011;11925;48.122;11.560;2022-07-01T02:40:49;1.13;;;0.70;;
23496;SDS011;11925;48.122;11.560;2022-07-01T02:43:18;1.95;;;0.88;;
23496;SDS011;11925;48.122;11.560;2022-07-01T02:45:47;1.05;;;0.68;;
23496;SDS011;11925;48.122;11.560;2022-07-01T02:48:17;1.00;;;0.70;;
23496;SDS011;11925;48.122;11.560;2022-07-01T02:50:46;1.10;;;0.60;;
23496;SDS011;11925;48.122;11.560;2022-07-01T02:53:14;1.17;;;0.68;;
23496;SDS011;11925;48.122;11.560;2022-07-01T02:55:43;1.67;;;0.70;;
23496;SDS011;11925;48.122;11.560;2022-07-01T02:58:12;1.45;;;0.90;;
23496;SDS011;11925;48.122;11.560;2022-07-01T03:00:41;1.17;;;0.70;;
23496;SDS011;11925;48.122;11.560;2022-07-01T03:03:10;1.98;;;0.80;;
23496;SDS011;11925;48.122;11.560;2022-07-01T03:05:40;1.25;;;0.57;;
23496;SDS011;11925;48.122;11.560;2022-07-01T03:08:09;0.88;;;0.60;;
23496;SDS011;11925;48.122;11.560;2022-07-01T03:10:37;1.10;;;0.60;;
23496;SDS011;11925;48.122;11.560;2022-07-01T03:13:06;1.63;;;0.70;;
23496;SDS011;11925;48.122;11.560;2022-07-01T03:15:35;1.50;;;1.02;;
23496;SDS011;11925;48.122;11.560;2022-07-01T03:18:04;1.73;;;0.70;;
23496;SDS011;11925;48.122;11.560;2022-07-01T03:20:33;1.15;;;0.80;;
23496;SDS011;11925;48.122;11.560;2022-07-01T03:23:03;3.90;;;0.90;;
23496;SDS011;11925;48.122;11.560;2022-07-01T03:25:32;5.18;;;0.80;;
23496;SDS011;11925;48.122;11.560;2022-07-01T03:28:02;0.93;;;0.80;;
23496;SDS011;11925;48.122;11.560;2022-07-01T03:30:31;1.10;;;1.00;;
23496;SDS011;11925;48.122;11.560;2022-07-01T03:33:00;1.67;;;0.77;;
23496;SDS011;11925;48.122;11.560;2022-07-01T03:35:29;1.02;;;0.73;;
23496;SDS011;11925;48.122;11.560;2022-07-01T03:38:07;1.70;;;0.75;;
23496;SDS011;11925;48.122;11.560;2022-07-01T03:40:36;2.17;;;0.90;;
23496;SDS011;11925;48.122;11.560;2022-07-01T03:43:05;1.30;;;0.80;;
23496;SDS011;11925;48.122;11.560;2022-07-01T03:45:33;2.33;;;0.90;;
23496;SDS011;11925;48.122;11.560;2022-07-01T03:48:02;2.28;;;0.90;;
23496;SDS011;11925;48.122;11.560;2022-07-01T03:50:31;1.27;;;0.80;;
23496;SDS011;11925;48.122;11.560;2022-07-01T03:53:00;1.63;;;0.80;;
23496;SDS011;11925;48.122;11.560;2022-07-01T03:55:44;2.45;;;0.80;;
23496;SDS011;11925;48.122;11.560;2022-07-01T03:58:13;1.45;;;0.85;;
23496;SDS011;11925;48.122;11.560;2022-07-01T04:00:42;1.20;;;0.80;;
23496;SDS011;11925;48.122;11.560;2022-07-01T04:03:11;1.10;;;0.80;;
23496;SDS011;11925;48.122;11.560;2022-07-01T04:05:40;2.42;;;1.00;;
23496;SDS011;11925;48.122;11.560;2022-07-01T04:08:08;1.00;;;0.80;;
23496;SDS011;11925;48.122;11.560;2022-07-01T04:10:38;2.00;;;0.80;;
23496;SDS011;11925;48.122;11.560;2022-07-01T04:13:09;0.93;;;0.70;;
23496;SDS011;11925;48.122;11.560;2022-07-01T04:15:57;2.15;;;0.80;;
23496;SDS011;11925;48.122;11.560;2022-07-01T04:18:27;1.80;;;0.82;;
23496;SDS011;11925;48.122;11.560;2022-07-01T04:20:56;1.50;;;0.80;;
23496;SDS011;11925;48.122;11.560;2022-07-01T04:23:42;3.08;;;0.88;;
23496;SDS011;11925;48.122;11.560;2022-07-01T04:26:11;1.33;;;0.80;;
23496;SDS011;11925;48.122;11.560;2022-07-01T04:29:01;3.50;;;0.90;;
23496;SDS011;11925;48.122;11.560;2022-07-01T04:31:30;1.88;;;1.10;;
23496;SDS011;11925;48.122;11.560;2022-07-01T04:33:59;1.52;;;0.90;;
23496;SDS011;11925;48.122;11.560;2022-07-01T04:36:28;1.65;;;1.00;;
23496;SDS011;11925;48.122;11.560;2022-07-01T04:38:57;1.10;;;0.90;;
23496;SDS011;11925;48.122;11.560;2022-07-01T04:41:25;1.45;;;1.15;;
23496;SDS011;11925;48.122;11.560;2022-07-01T04:44:13;2.15;;;1.00;;
23496;SDS011;11925;48.122;11.560;2022-07-01T04:46:42;2.03;;;0.95;;
23496;SDS011;11925;48.122;11.560;2022-07-01T04:49:11;1.60;;;1.08;;
23496;SDS011;11925;48.122;11.560;2022-07-01T04:51:40;1.17;;;0.80;;
23496;SDS011;11925;48.122;11.560;2022-07-01T04:54:09;1.67;;;0.95;;
23496;SDS011;11925;48.122;11.560;2022-07-01T04:56:38;1.73;;;0.95;;
23496;SDS011;11925;48.122;11.560;2022-07-01T04:59:10;1.17;;;0.85;;
23496;SDS011;11925;48.122;11.560;2022-07-01T05:01:41;5.22;;;1.00;;
23496;SDS011;11925;48.122;11.560;2022-07-01T05:04:10;2.50;;;1.00;;
23496;SDS011;11925;48.122;11.560;2022-07-01T05:06:39;1.58;;;0.90;;
23496;SDS011;11925;48.122;11.560;2022-07-01T05:09:08;2.05;;;0.80;;
23496;SDS011;11925;48.122;11.560;2022-07-01T05:11:37;1.50;;;0.90;;
23496;SDS011;11925;48.122;11.560;2022-07-01T05:14:07;1.10;;;0.90;;
23496;SDS011;11925;48.122;11.560;2022-07-01T05:16:36;2.88;;;0.93;;
23496;SDS011;11925;48.122;11.560;2022-07-01T05:19:06;1.55;;;1.00;;
23496;SDS011;11925;48.122;11.560;2022-07-01T05:21:52;1.67;;;0.88;;
23496;SDS011;11925;48.122;11.560;2022-07-01T05:24:25;1.80;;;1.15;;
23496;SDS011;11925;48.122;11.560;2022-07-01T05:26:55;1.23;;;1.00;;
23496;SDS011;11925;48.122;11.560;2022-07-01T05:29:24;2.38;;;1.58;;
23496;SDS011;11925;48.122;11.560;2022-07-01T05:31:52;2.53;;;1.63;;
23496;SDS011;11925;48.122;11.560;2022-07-01T05:34:22;2.95;;;1.70;;
23496;SDS011;11925;48.122;11.560;2022-07-01T05:36:52;2.58;;;1.48;;
23496;SDS011;11925;48.122;11.560;2022-07-01T05:39:20;2.00;;;1.42;;
23496;SDS011;11925;48.122;11.560;2022-07-01T05:41:49;2.60;;;1.45;;
23496;SDS011;11925;48.122;11.560;2022-07-01T05:44:18;1.52;;;1.17;;
23496;SDS011;11925;48.122;11.560;2022-07-01T05:46:48;2.88;;;1.80;;
23496;SDS011;11925;48.122;11.560;2022-07-01T05:49:17;2.63;;;1.40;;
23496;SDS011;11925;48.122;11.560;2022-07-01T05:51:47;2.03;;;1.30;;
23496;SDS011;11925;48.122;11.560;2022-07-01T05:54:15;4.97;;;2.45;;
23496;SDS011;11925;48.122;11.560;2022-07-01T05:56:44;8.25;;;3.08;;
23496;SDS011;11925;48.122;11.560;2022-07-01T05:59:13;7.78;;;2.83;;
23496;SDS011;11925;48.122;11.560;2022-07-01T06:01:42;5.82;;;2.92;;
23496;SDS011;11925;48.122;11.560;2022-07-01T06:04:12;6.07;;;2.60;;
23496;SDS011;11925;48.122;11.560;2022-07-01T06:06:42;5.45;;;2.15;;
23496;SDS011;11925;48.122;11.560;2022-07-01T06:09:12;2.95;;;1.63;;
23496;SDS011;11925;48.122;11.560;2022-07-01T06:11:41;3.95;;;1.50;;
23496;SDS011;11925;48.122;11.560;2022-07-01T06:14:10;3.17;;;1.70;;
23496;SDS011;11925;48.122;11.560;2022-07-01T06:16:38;3.60;;;1.65;;
23496;SDS011;11925;48.122;11.560;2022-07-01T06:19:07;2.17;;;1.40;;
23496;SDS011;11925;48.122;11.560;2022-07-01T06:21:36;3.05;;;1.60;;
23496;SDS011;11925;48.122;11.560;2022-07-01T06:24:05;4.05;;;1.58;;
23496;SDS011;11925;48.122;11.560;2022-07-01T06:26:35;4.20;;;1.52;;
23496;SDS011;11925;48.122;11.560;2022-07-01T06:29:04;3.45;;;1.70;;
23496;SDS011;11925;48.122;11.560;2022-07-01T06:31:32;16.48;;;8.30;;
23496;SDS011;11925;48.122;11.560;2022-07-01T06:34:01;7.93;;;3.83;;
23496;SDS011;11925;48.122;11.560;2022-07-01T06:36:30;7.40;;;3.10;;
23496;SDS011;11925;48.122;11.560;2022-07-01T06:38:59;7.30;;;2.20;;
23496;SDS011;11925;48.122;11.560;2022-07-01T06:41:28;4.47;;;1.70;;
23496;SDS011;11925;48.122;11.560;2022-07-01T06:43:58;4.55;;;1.98;;
23496;SDS011;11925;48.122;11.560;2022-07-01T06:46:28;2.60;;;1.70;;
23496;SDS011;11925;48.122;11.560;2022-07-01T06:48:57;4.20;;;1.60;;
23496;SDS011;11925;48.122;11.560;2022-07-01T06:51:26;4.13;;;1.40;;
23496;SDS011;11925;48.122;11.560;2022-07-01T06:53:55;3.35;;;1.70;;
23496;SDS011;11925;48.122;11.560;2022-07-01T06:56:24;3.55;;;1.50;;
23496;SDS011;11925;48.122;11.560;2022-07-01T06:58:53;2.95;;;1.60;;
23496;SDS011;11925;48.122;11.560;2022-07-01T07:01:23;4.55;;;1.70;;
23496;SDS011;11925;48.122;11.560;2022-07-01T07:03:52;4.20;;;1.75;;
23496;SDS011;11925;48.122;11.560;2022-07-01T07:06:20;3.70;;;2.10;;
23496;SDS011;11925;48.122;11.560;2022-07-01T07:08:49;1.92;;;1.30;;
23496;SDS011;11925;48.122;11.560;2022-07-01T07:11:18;3.05;;;1.52;;
23496;SDS011;11925;48.122;11.560;2022-07-01T07:13:46;2.53;;;1.25;;
23496;SDS011;11925;48.122;11.560;2022-07-01T07:16:15;3.10;;;1.67;;
23496;SDS011;11925;48.122;11.560;2022-07-01T07:18:49;2.80;;;1.80;;
23496;SDS011;11925;48.122;11.560;2022-07-01T07:21:18;3.63;;;1.60;;
23496;SDS011;11925;48.122;11.560;2022-07-01T07:23:46;2.10;;;1.58;;
23496;SDS011;11925;48.122;11.560;2022-07-01T07:26:15;2.58;;;1.45;;
23496;SDS011;11925;48.122;11.560;2022-07-01T07:28:44;4.13;;;1.52;;
23496;SDS011;11925;48.122;11.560;2022-07-01T07:31:12;3.13;;;1.40;;
23496;SDS011;11925;48.122;11.560;2022-07-01T07:33:41;2.20;;;1.60;;
23496;SDS011;11925;48.122;11.560;2022-07-01T07:36:11;2.53;;;1.45;;
23496;SDS011;11925;48.122;11.560;2022-07-01T07:38:40;2.97;;;1.80;;
23496;SDS011;11925;48.122;11.560;2022-07-01T07:41:08;3.05;;;1.83;;
23496;SDS011;11925;48.122;11.560;2022-07-01T07:43:37;4.00;;;1.80;;
23496;SDS011;11925;48.122;11.560;2022-07-01T07:46:06;3.45;;;1.92;;
23496;SDS011;11925;48.122;11.560;2022-07-01T07:48:34;2.67;;;2.00;;
23496;SDS011;11925;48.122;11.560;2022-07-01T07:51:03;2.45;;;2.13;;
23496;SDS011;11925;48.122;11.560;2022-07-01T07:53:33;3.97;;;2.10;;
23496;SDS011;11925;48.122;11.560;2022-07-01T07:56:02;3.83;;;2.13;;
23496;SDS011;11925;48.122;11.560;2022-07-01T07:58:31;4.70;;;2.30;;
23496;SDS011;11925;48.122;11.560;2022-07-01T08:01:00;3.65;;;2.60;;
23496;SDS011;11925;48.122;11.560;2022-07-01T08:03:31;3.72;;;2.83;;
23496;SDS011;11925;48.122;11.560;2022-07-01T08:06:00;4.10;;;3.20;;
23496;SDS011;11925;48.122;11.560;2022-07-01T08:08:30;5.20;;;3.65;;
23496;SDS011;11925;48.122;11.560;2022-07-01T08:11:00;4.15;;;3.35;;
23496;SDS011;11925;48.122;11.560;2022-07-01T08:13:28;6.47;;;3.45;;
23496;SDS011;11925;48.122;11.560;2022-07-01T08:15:57;3.63;;;2.83;;
23496;SDS011;11925;48.122;11.560;2022-07-01T08:18:26;3.78;;;2.85;;
23496;SDS011;11925;48.122;11.560;2022-07-01T08:20:54;4.68;;;2.30;;
23496;SDS011;11925;48.122;11.560;2022-07-01T08:23:23;3.25;;;1.63;;
23496;SDS011;11925;48.122;11.560;2022-07-01T08:25:52;2.10;;;1.10;;
23496;SDS011;11925;48.122;11.560;2022-07-01T08:28:22;1.55;;;0.80;;
23496;SDS011;11925;48.122;11.560;2022-07-01T08:30:50;2.47;;;0.95;;
23496;SDS011;11925;48.122;11.560;2022-07-01T08:33:19;2.65;;;0.82;;
23496;SDS011;11925;48.122;11.560;2022-07-01T08:35:48;4.40;;;1.80;;
23496;SDS011;11925;48.122;11.560;2022-07-01T08:38:18;3.55;;;1.50;;
23496;SDS011;11925;48.122;11.560;2022-07-01T08:40:49;2.80;;;1.63;;
23496;SDS011;11925;48.122;11.560;2022-07-01T08:43:21;3.20;;;1.70;;
23496;SDS011;11925;48.122;11.560;2022-07-01T08:45:50;3.72;;;1.88;;
23496;SDS011;11925;48.122;11.560;2022-07-01T08:48:19;2.88;;;1.60;;
23496;SDS011;11925;48.122;11.560;2022-07-01T08:50:48;2.22;;;1.30;;
23496;SDS011;11925;48.122;11.560;2022-07-01T08:53:17;2.20;;;1.13;;
23496;SDS011;11925;48.122;11.560;2022-07-01T08:55:45;1.90;;;1.00;;
23496;SDS011;11925;48.122;11.560;2022-07-01T08:58:33;1.40;;;1.20;;
23496;SDS011;11925;48.122;11.560;2022-07-01T09:01:13;1.98;;;1.10;;
23496;SDS011;11925;48.122;11.560;2022-07-01T09:03:42;2.83;;;1.35;;
23496;SDS011;11925;48.122;11.560;2022-07-01T09:06:12;2.17;;;1.08;;
23496;SDS011;11925;48.122;11.560;2022-07-01T09:08:42;3.85;;;1.80;;
23496;SDS011;11925;48.122;11.560;2022-07-01T09:11:11;2.35;;;1.02;;
23496;SDS011;11925;48.122;11.560;2022-07-01T09:13:42;2.83;;;1.27;;
23496;SDS011;11925;48.122;11.560;2022-07-01T09:16:11;1.70;;;1.00;;
23496;SDS011;11925;48.122;11.560;2022-07-01T09:18:40;2.95;;;1.23;;
23496;SDS011;11925;48.122;11.560;2022-07-01T09:21:12;2.08;;;1.00;;
23496;SDS011;11925;48.122;11.560;2022-07-01T09:23:42;3.20;;;1.15;;
23496;SDS011;11925;48.122;11.560;2022-07-01T09:26:18;2.30;;;0.98;;
23496;SDS011;11925;48.122;11.560;2022-07-01T09:28:53;3.47;;;1.10;;
23496;SDS011;11925;48.122;11.560;2022-07-01T09:31:22;3.08;;;0.93;;
23496;SDS011;11925;48.122;11.560;2022-07-01T09:34:02;1.40;;;0.77;;
23496;SDS011;11925;48.122;11.560;2022-07-01T09:36:31;3.00;;;0.70;;
23496;SDS011;11925;48.122;11.560;2022-07-01T09:39:02;1.48;;;0.77;;
23496;SDS011;11925;48.122;11.560;2022-07-01T09:41:53;1.45;;;0.85;;
23496;SDS011;11925;48.122;11.560;2022-07-01T09:44:23;1.45;;;0.70;;
23496;SDS011;11925;48.122;11.560;2022-07-01T09:46:53;1.60;;;0.52;;
23496;SDS011;11925;48.122;11.560;2022-07-01T09:49:23;1.73;;;1.00;;
23496;SDS011;11925;48.122;11.560;2022-07-01T09:51:52;1.48;;;0.70;;
23496;SDS011;11925;48.122;11.560;2022-07-01T09:54:20;1.77;;;0.60;;
23496;SDS011;11925;48.122;11.560;2022-07-01T09:56:49;2.58;;;0.70;;
23496;SDS011;11925;48.122;11.560;2022-07-01T09:59:17;2.40;;;1.50;;
23496;SDS011;11925;48.122;11.560;2022-07-01T10:01:48;3.25;;;1.08;;
23496;SDS011;11925;48.122;11.560;2022-07-01T10:04:17;1.95;;;1.00;;
23496;SDS011;11925;48.122;11.560;2022-07-01T10:06:48;2.10;;;1.10;;
23496;SDS011;11925;48.122;11.560;2022-07-01T10:09:24;1.52;;;0.90;;
23496;SDS011;11925;48.122;11.560;2022-07-01T10:12:00;1.98;;;1.00;;
23496;SDS011;11925;48.122;11.560;2022-07-01T10:14:32;2.45;;;1.00;;
23496;SDS011;11925;48.122;11.560;2022-07-01T10:17:06;3.35;;;1.05;;
23496;SDS011;11925;48.122;11.560;2022-07-01T10:19:35;1.70;;;1.00;;
23496;SDS011;11925;48.122;11.560;2022-07-01T10:24:47;2.28;;;0.80;;
23496;SDS011;11925;48.122;11.560;2022-07-01T10:27:19;2.85;;;1.02;;
23496;SDS011;11925;48.122;11.560;2022-07-01T10:29:48;3.45;;;1.42;;
23496;SDS011;11925;48.122;11.560;2022-07-01T10:32:27;2.08;;;1.02;;
23496;SDS011;11925;48.122;11.560;2022-07-01T10:35:16;2.72;;;1.10;;
23496;SDS011;11925;48.122;11.560;2022-07-01T10:37:56;1.52;;;0.80;;
23496;SDS011;11925;48.122;11.560;2022-07-01T10:40:40;1.20;;;0.80;;
23496;SDS011;11925;48.122;11.560;2022-07-01T10:43:11;2.08;;;1.02;;
23496;SDS011;11925;48.122;11.560;2022-07-01T10:45:52;1.30;;;0.90;;
23496;SDS011;11925;48.122;11.560;2022-07-01T10:48:23;1.48;;;0.85;;
23496;SDS011;11925;48.122;11.560;2022-07-01T10:50:52;3.07;;;1.10;;
23496;SDS011;11925;48.122;11.560;2022-07-01T10:53:21;1.25;;;0.77;;
23496;SDS011;11925;48.122;11.560;2022-07-01T10:55:50;2.30;;;1.10;;
23496;SDS011;11925;48.122;11.560;2022-07-01T10:58:34;1.50;;;1.05;;
23496;SDS011;11925;48.122;11.560;2022-07-01T11:01:04;2.38;;;1.23;;
23496;SDS011;11925;48.122;11.560;2022-07-01T11:03:35;2.53;;;1.50;;
23496;SDS011;11925;48.122;11.560;2022-07-01T11:06:07;2.05;;;1.00;;
23496;SDS011;11925;48.122;11.560;2022-07-01T11:08:35;1.55;;;1.35;;
23496;SDS011;11925;48.122;11.560;2022-07-01T11:11:04;2.50;;;1.23;;
23496;SDS011;11925;48.122;11.560;2022-07-01T11:13:34;3.28;;;1.42;;
23496;SDS011;11925;48.122;11.560;2022-07-01T11:16:03;1.65;;;0.98;;
23496;SDS011;11925;48.122;11.560;2022-07-01T11:18:32;3.13;;;1.20;;
23496;SDS011;11925;48.122;11.560;2022-07-01T11:21:06;2.20;;;1.05;;
23496;SDS011;11925;48.122;11.560;2022-07-01T11:23:35;2.28;;;1.00;;
23496;SDS011;11925;48.122;11.560;2022-07-01T11:26:07;1.33;;;0.80;;
23496;SDS011;11925;48.122;11.560;2022-07-01T11:28:39;2.22;;;1.20;;
23496;SDS011;11925;48.122;11.560;2022-07-01T11:31:08;1.75;;;1.23;;
23496;SDS011;11925;48.122;11.560;2022-07-01T11:33:37;1.45;;;0.80;;
23496;SDS011;11925;48.122;11.560;2022-07-01T11:36:08;1.40;;;1.10;;
23496;SDS011;11925;48.122;11.560;2022-07-01T11:38:54;1.50;;;0.88;;
23496;SDS011;11925;48.122;11.560;2022-07-01T11:41:41;2.90;;;1.38;;
23496;SDS011;11925;48.122;11.560;2022-07-01T11:44:09;1.30;;;0.90;;
23496;SDS011;11925;48.122;11.560;2022-07-01T11:46:38;1.00;;;0.85;;
23496;SDS011;11925;48.122;11.560;2022-07-01T11:49:10;1.85;;;0.90;;
23496;SDS011;11925;48.122;11.560;2022-07-01T11:51:41;1.80;;;1.20;;
23496;SDS011;11925;48.122;11.560;2022-07-01T11:54:18;1.30;;;0.80;;
23496;SDS011;11925;48.122;11.560;2022-07-01T11:56:48;1.52;;;0.82;;
23496;SDS011;11925;48.122;11.560;2022-07-01T11:59:18;1.92;;;1.17;;
23496;SDS011;11925;48.122;11.560;2022-07-01T12:01:51;1.33;;;0.90;;
23496;SDS011;11925;48.122;11.560;2022-07-01T12:04:21;1.83;;;1.08;;
23496;SDS011;11925;48.122;11.560;2022-07-01T12:06:51;1.50;;;1.08;;
23496;SDS011;11925;48.122;11.560;2022-07-01T12:09:20;1.70;;;1.20;;
23496;SDS011;11925;48.122;11.560;2022-07-01T12:11:50;1.30;;;1.17;;
23496;SDS011;11925;48.122;11.560;2022-07-01T12:14:19;1.67;;;1.02;;
23496;SDS011;11925;48.122;11.560;2022-07-01T12:16:50;2.50;;;1.20;;
23496;SDS011;11925;48.122;11.560;2022-07-01T12:19:20;2.53;;;1.20;;
23496;SDS011;11925;48.122;11.560;2022-07-01T12:21:51;1.70;;;1.20;;
23496;SDS011;11925;48.122;11.560;2022-07-01T12:24:20;2.38;;;1.42;;
23496;SDS011;11925;48.122;11.560;2022-07-01T12:26:52;1.75;;;1.27;;
23496;SDS011;11925;48.122;11.560;2022-07-01T12:29:22;1.75;;;1.13;;
23496;SDS011;11925;48.122;11.560;2022-07-01T12:31:56;1.42;;;1.20;;
23496;SDS011;11925;48.122;11.560;2022-07-01T12:34:36;2.10;;;1.25;;
23496;SDS011;11925;48.122;11.560;2022-07-01T12:37:08;1.58;;;1.20;;
23496;SDS011;11925;48.122;11.560;2022-07-01T12:39:43;1.23;;;1.00;;
23496;SDS011;11925;48.122;11.560;2022-07-01T12:42:21;1.25;;;1.00;;
23496;SDS011;11925;48.122;11.560;2022-07-01T12:44:51;1.75;;;1.10;;
23496;SDS011;11925;48.122;11.560;2022-07-01T12:47:20;2.40;;;1.50;;
23496;SDS011;11925;48.122;11.560;2022-07-01T12:49:49;1.83;;;1.40;;
23496;SDS011;11925;48.122;11.560;2022-07-01T12:52:25;1.98;;;1.55;;
23496;SDS011;11925;48.122;11.560;2022-07-01T12:54:55;2.35;;;1.70;;
23496;SDS011;11925;48.122;11.560;2022-07-01T12:57:28;2.20;;;1.60;;
23496;SDS011;11925;48.122;11.560;2022-07-01T13:00:04;2.70;;;1.60;;
23496;SDS011;11925;48.122;11.560;2022-07-01T13:02:33;6.30;;;3.10;;
23496;SDS011;11925;48.122;11.560;2022-07-01T13:05:02;5.18;;;2.35;;
23496;SDS011;11925;48.122;11.560;2022-07-01T13:07:32;2.08;;;1.60;;
23496;SDS011;11925;48.122;11.560;2022-07-01T13:10:00;4.78;;;2.53;;
23496;SDS011;11925;48.122;11.560;2022-07-01T13:12:30;4.55;;;2.10;;
23496;SDS011;11925;48.122;11.560;2022-07-01T13:14:58;2.97;;;2.10;;
23496;SDS011;11925;48.122;11.560;2022-07-01T13:17:27;5.80;;;1.90;;
23496;SDS011;11925;48.122;11.560;2022-07-01T13:20:03;2.63;;;2.10;;
23496;SDS011;11925;48.122;11.560;2022-07-01T13:22:33;2.58;;;1.90;;
23496;SDS011;11925;48.122;11.560;2022-07-01T13:25:02;2.15;;;1.80;;
23496;SDS011;11925;48.122;11.560;2022-07-01T13:27:30;2.60;;;2.20;;
23496;SDS011;11925;48.122;11.560;2022-07-01T13:29:59;2.60;;;1.95;;
23496;SDS011;11925;48.122;11.560;2022-07-01T13:32:29;2.38;;;2.05;;
23496;SDS011;11925;48.122;11.560;2022-07-01T13:34:58;2.22;;;1.48;;
23496;SDS011;11925;48.122;11.560;2022-07-01T13:37:26;2.30;;;1.63;;
23496;SDS011;11925;48.122;11.560;2022-07-01T13:39:56;3.80;;;1.88;;
23496;SDS011;11925;48.122;11.560;2022-07-01T13:42:25;3.13;;;2.15;;
23496;SDS011;11925;48.122;11.560;2022-07-01T13:44:54;4.63;;;2.05;;
23496;SDS011;11925;48.122;11.560;2022-07-01T13:47:22;3.33;;;1.80;;
23496;SDS011;11925;48.122;11.560;2022-07-01T13:49:51;3.75;;;2.33;;
23496;SDS011;11925;48.122;11.560;2022-07-01T13:52:20;4.05;;;1.90;;
23496;SDS011;11925;48.122;11.560;2022-07-01T13:54:48;3.03;;;2.30;;
23496;SDS011;11925;48.122;11.560;2022-07-01T13:57:18;2.33;;;2.00;;
23496;SDS011;11925;48.122;11.560;2022-07-01T13:59:47;2.33;;;1.90;;
23496;SDS011;11925;48.122;11.560;2022-07-01T14:02:16;3.33;;;2.33;;
23496;SDS011;11925;48.122;11.560;2022-07-01T14:04:45;2.58;;;1.85;;
23496;SDS011;11925;48.122;11.560;2022-07-01T14:07:14;3.00;;;2.28;;
23496;SDS011;11925;48.122;11.560;2022-07-01T14:09:43;3.25;;;2.20;;
23496;SDS011;11925;48.122;11.560;2022-07-01T14:12:11;2.05;;;1.80;;
23496;SDS011;11925;48.122;11.560;2022-07-01T14:14:54;3.30;;;2.25;;
23496;SDS011;11925;48.122;11.560;2022-07-01T14:17:23;3.22;;;1.85;;
23496;SDS011;11925;48.122;11.560;2022-07-01T14:19:52;2.00;;;1.80;;
23496;SDS011;11925;48.122;11.560;2022-07-01T14:22:22;2.67;;;2.15;;
23496;SDS011;11925;48.122;11.560;2022-07-01T14:24:52;2.30;;;1.80;;
23496;SDS011;11925;48.122;11.560;2022-07-01T14:27:20;2.75;;;2.00;;
23496;SDS011;11925;48.122;11.560;2022-07-01T14:29:49;4.22;;;1.90;;
23496;SDS011;11925;48.122;11.560;2022-07-01T14:32:24;3.00;;;1.90;;
23496;SDS011;11925;48.122;11.560;2022-07-01T14:34:55;2.63;;;1.67;;
23496;SDS011;11925;48.122;11.560;2022-07-01T14:37:23;3.25;;;2.17;;
23496;SDS011;11925;48.122;11.560;2022-07-01T14:39:52;2.45;;;1.60;;
23496;SDS011;11925;48.122;11.560;2022-07-01T14:42:23;4.88;;;2.25;;
23496;SDS011;11925;48.122;11.560;2022-07-01T14:44:52;3.55;;;1.90;;
23496;SDS011;11925;48.122;11.560;2022-07-01T14:47:21;4.15;;;2.08;;
23496;SDS011;11925;48.122;11.560;2022-07-01T14:49:51;2.80;;;1.73;;
23496;SDS011;11925;48.122;11.560;2022-07-01T14:52:20;2.40;;;2.03;;
23496;SDS011;11925;48.122;11.560;2022-07-01T14:54:50;3.38;;;1.83;;
23496;SDS011;11925;48.122;11.560;2022-07-01T14:57:19;1.60;;;1.48;;